Terminal Aerodrome Forecast
Issued by NWS Houston/Galveston, TX

Home | Current Version | Previous Version | Text Only | Print | Product List | Glossary On
Versions: 1 2 3 4 5 6 7 8 9 10 11 12 13 14 15 16 17 18 19
000
FTUS44 KHGX 272330
TAFCLL
TAF
KCLL 272330Z 2800/2824 14013KT P6SM SKC
     FM280500 17009KT P6SM BKN012
     FM280900 18008KT P6SM BKN007 OVC012
     FM281700 17015KT P6SM BKN020
     FM282000 17017G24KT P6SM SCT030 BKN250=

USA.gov is the U.S. government's official web portal to all federal, state and local government web resources and services.